Terminal Aerodrome Forecast
Issued by NWS Topeka, KS

Home | Current Version | Previous Version | Graphics & Text | Print | Product List | Glossary On
Versions: 1 2 3 4 5 6 7 8 9 10 11 12 13 14 15 16 17 18
000
FTUS43 KTOP 242258 AAA
TAFTOP
TAF AMD
KTOP 242258Z 2423/2518 15009KT P6SM VCTS BKN035CB
      TEMPO 2423/2502 22015G30KT 2SM TSRA BKN035CB
     FM251500 33007KT P6SM BKN050=

USA.gov is the U.S. government's official web portal to all federal, state and local government web resources and services.